Terminal Aerodrome Forecast
Issued by NWS Omaha/Valley, NE

Home | Current Version | Previous Version | Text Only | Print | Product List | Glossary On
Versions: 1 2 3 4 5 6 7 8 9 10 11 12 13 14 15 16 17 18 19 20 21 22 23 24 25 26 27 28 29 30 31 32 33 34 35 36 37 38 39 40
000
FTUS43 KOAX 241120
TAFOFK
TAF
KOFK 241120Z 2412/2512 VRB02KT P6SM BKN150
     FM241800 13008KT P6SM SCT250 PROB30 2500/2502 4SM -TSRA
      OVC040CB
     FM250200 13010KT P6SM OVC100 PROB30 2502/2504 4SM -TSRA
      OVC040CB
     FM250400 14010KT P6SM -SHRA VCTS BKN090CB=

USA.gov is the U.S. government's official web portal to all federal, state and local government web resources and services.